sensor_id;sensor_type;location;lat;lon;timestamp;P1;durP1;ratioP1;P2;durP2;ratioP2
64033;SDS011;50280;49.864;8.638;2022-09-29T00:00:54;7.28;;;3.80;;
64033;SDS011;50280;49.864;8.638;2022-09-29T00:03:27;7.70;;;4.27;;
64033;SDS011;50280;49.864;8.638;2022-09-29T00:06:00;6.90;;;3.53;;
64033;SDS011;50280;49.864;8.638;2022-09-29T00:08:32;8.25;;;4.05;;
64033;SDS011;50280;49.864;8.638;2022-09-29T00:11:06;9.02;;;3.90;;
64033;SDS011;50280;49.864;8.638;2022-09-29T00:13:39;9.13;;;4.40;;
64033;SDS011;50280;49.864;8.638;2022-09-29T00:16:13;6.85;;;4.45;;
64033;SDS011;50280;49.864;8.638;2022-09-29T00:18:46;6.20;;;4.00;;
64033;SDS011;50280;49.864;8.638;2022-09-29T00:21:19;6.93;;;4.40;;
64033;SDS011;50280;49.864;8.638;2022-09-29T00:23:53;8.38;;;4.30;;
64033;SDS011;50280;49.864;8.638;2022-09-29T00:26:25;8.85;;;4.10;;
64033;SDS011;50280;49.864;8.638;2022-09-29T00:28:58;7.70;;;4.15;;
64033;SDS011;50280;49.864;8.638;2022-09-29T00:31:32;8.93;;;4.05;;
64033;SDS011;50280;49.864;8.638;2022-09-29T00:34:05;8.13;;;4.10;;
64033;SDS011;50280;49.864;8.638;2022-09-29T00:36:37;6.90;;;4.43;;
64033;SDS011;50280;49.864;8.638;2022-09-29T00:39:10;8.73;;;4.60;;
64033;SDS011;50280;49.864;8.638;2022-09-29T00:41:42;7.65;;;4.30;;
64033;SDS011;50280;49.864;8.638;2022-09-29T00:47:57;9.25;;;4.78;;
64033;SDS011;50280;49.864;8.638;2022-09-29T00:50:42;7.82;;;4.50;;
64033;SDS011;50280;49.864;8.638;2022-09-29T00:53:22;8.35;;;4.55;;
64033;SDS011;50280;49.864;8.638;2022-09-29T00:55:58;8.57;;;4.50;;
64033;SDS011;50280;49.864;8.638;2022-09-29T00:58:39;8.93;;;4.30;;
64033;SDS011;50280;49.864;8.638;2022-09-29T01:01:20;8.77;;;4.85;;
64033;SDS011;50280;49.864;8.638;2022-09-29T01:03:58;9.10;;;5.10;;
64033;SDS011;50280;49.864;8.638;2022-09-29T01:06:39;9.25;;;4.80;;
64033;SDS011;50280;49.864;8.638;2022-09-29T01:09:19;8.68;;;5.35;;
64033;SDS011;50280;49.864;8.638;2022-09-29T01:12:00;8.68;;;4.78;;
64033;SDS011;50280;49.864;8.638;2022-09-29T01:14:34;8.05;;;4.70;;
64033;SDS011;50280;49.864;8.638;2022-09-29T01:17:09;8.82;;;5.43;;
64033;SDS011;50280;49.864;8.638;2022-09-29T01:19:45;10.43;;;4.97;;
64033;SDS011;50280;49.864;8.638;2022-09-29T01:22:43;12.10;;;5.38;;
64033;SDS011;50280;49.864;8.638;2022-09-29T01:26:31;7.90;;;4.57;;
64033;SDS011;50280;49.864;8.638;2022-09-29T01:30:11;10.68;;;5.70;;
64033;SDS011;50280;49.864;8.638;2022-09-29T01:33:03;10.50;;;5.50;;
64033;SDS011;50280;49.864;8.638;2022-09-29T01:36:04;8.43;;;4.95;;
64033;SDS011;50280;49.864;8.638;2022-09-29T01:39:02;8.73;;;4.95;;
64033;SDS011;50280;49.864;8.638;2022-09-29T01:41:49;9.60;;;5.32;;
64033;SDS011;50280;49.864;8.638;2022-09-29T01:44:32;9.70;;;4.97;;
64033;SDS011;50280;49.864;8.638;2022-09-29T01:47:13;11.50;;;5.05;;
64033;SDS011;50280;49.864;8.638;2022-09-29T01:49:56;7.85;;;5.20;;
64033;SDS011;50280;49.864;8.638;2022-09-29T01:52:39;9.18;;;5.95;;
64033;SDS011;50280;49.864;8.638;2022-09-29T01:55:20;12.00;;;5.88;;
64033;SDS011;50280;49.864;8.638;2022-09-29T01:58:03;12.15;;;6.32;;
64033;SDS011;50280;49.864;8.638;2022-09-29T02:00:42;11.02;;;6.15;;
64033;SDS011;50280;49.864;8.638;2022-09-29T02:03:25;13.32;;;6.38;;
64033;SDS011;50280;49.864;8.638;2022-09-29T02:06:09;10.45;;;6.22;;
64033;SDS011;50280;49.864;8.638;2022-09-29T02:08:52;9.07;;;6.20;;
64033;SDS011;50280;49.864;8.638;2022-09-29T02:11:30;10.50;;;6.40;;
64033;SDS011;50280;49.864;8.638;2022-09-29T11:35:19;14.43;;;9.60;;
64033;SDS011;50280;49.864;8.638;2022-09-29T11:38:17;15.02;;;9.55;;
64033;SDS011;50280;49.864;8.638;2022-09-29T11:41:15;13.30;;;9.23;;
64033;SDS011;50280;49.864;8.638;2022-09-29T11:44:20;12.35;;;8.68;;
64033;SDS011;50280;49.864;8.638;2022-09-29T11:47:26;14.90;;;9.60;;
64033;SDS011;50280;49.864;8.638;2022-09-29T11:50:29;13.95;;;9.98;;
64033;SDS011;50280;49.864;8.638;2022-09-29T11:53:25;15.07;;;9.63;;
64033;SDS011;50280;49.864;8.638;2022-09-29T11:56:25;12.82;;;8.68;;
64033;SDS011;50280;49.864;8.638;2022-09-29T11:59:21;14.57;;;9.45;;
64033;SDS011;50280;49.864;8.638;2022-09-29T12:06:04;12.52;;;8.38;;
64033;SDS011;50280;49.864;8.638;2022-09-29T12:09:29;12.95;;;8.27;;
64033;SDS011;50280;49.864;8.638;2022-09-29T12:12:30;11.43;;;8.38;;
64033;SDS011;50280;49.864;8.638;2022-09-29T12:15:21;13.13;;;9.55;;
64033;SDS011;50280;49.864;8.638;2022-09-29T12:18:16;14.70;;;9.98;;
64033;SDS011;50280;49.864;8.638;2022-09-29T12:20:57;12.55;;;8.75;;
64033;SDS011;50280;49.864;8.638;2022-09-29T12:23:36;12.23;;;7.97;;
64033;SDS011;50280;49.864;8.638;2022-09-29T12:26:16;11.60;;;7.72;;
64033;SDS011;50280;49.864;8.638;2022-09-29T12:28:56;11.25;;;7.10;;
64033;SDS011;50280;49.864;8.638;2022-09-29T12:31:38;10.50;;;6.80;;
64033;SDS011;50280;49.864;8.638;2022-09-29T12:34:21;11.32;;;6.47;;
64033;SDS011;50280;49.864;8.638;2022-09-29T12:37:17;8.85;;;5.88;;
64033;SDS011;50280;49.864;8.638;2022-09-29T12:40:02;9.70;;;6.25;;
64033;SDS011;50280;49.864;8.638;2022-09-29T12:42:57;10.68;;;6.45;;
64033;SDS011;50280;49.864;8.638;2022-09-29T12:45:47;9.43;;;6.72;;
64033;SDS011;50280;49.864;8.638;2022-09-29T12:48:43;10.48;;;6.35;;
64033;SDS011;50280;49.864;8.638;2022-09-29T12:51:30;9.40;;;5.88;;
64033;SDS011;50280;49.864;8.638;2022-09-29T12:54:13;9.32;;;5.55;;
64033;SDS011;50280;49.864;8.638;2022-09-29T12:56:56;9.02;;;5.30;;
64033;SDS011;50280;49.864;8.638;2022-09-29T12:59:36;7.45;;;4.78;;
64033;SDS011;50280;49.864;8.638;2022-09-29T13:02:25;11.65;;;6.53;;
64033;SDS011;50280;49.864;8.638;2022-09-29T13:05:43;8.77;;;4.13;;
64033;SDS011;50280;49.864;8.638;2022-09-29T13:08:49;5.35;;;3.42;;
64033;SDS011;50280;49.864;8.638;2022-09-29T13:12:04;8.85;;;6.03;;
64033;SDS011;50280;49.864;8.638;2022-09-29T13:18:45;10.30;;;5.80;;
64033;SDS011;50280;49.864;8.638;2022-09-29T13:21:55;9.30;;;5.80;;
64033;SDS011;50280;49.864;8.638;2022-09-29T13:25:00;9.70;;;5.88;;
64033;SDS011;50280;49.864;8.638;2022-09-29T13:27:52;8.15;;;5.30;;
64033;SDS011;50280;49.864;8.638;2022-09-29T13:30:28;9.25;;;5.45;;
64033;SDS011;50280;49.864;8.638;2022-09-29T13:33:09;9.40;;;4.68;;
64033;SDS011;50280;49.864;8.638;2022-09-29T13:35:51;8.95;;;5.07;;
64033;SDS011;50280;49.864;8.638;2022-09-29T13:38:26;9.93;;;5.30;;
64033;SDS011;50280;49.864;8.638;2022-09-29T13:41:10;8.00;;;4.63;;
64033;SDS011;50280;49.864;8.638;2022-09-29T13:47:09;7.85;;;4.03;;
64033;SDS011;50280;49.864;8.638;2022-09-29T13:53:25;8.07;;;3.17;;
64033;SDS011;50280;49.864;8.638;2022-09-29T13:56:10;4.22;;;2.35;;
64033;SDS011;50280;49.864;8.638;2022-09-29T13:58:57;5.25;;;1.70;;
64033;SDS011;50280;49.864;8.638;2022-09-29T14:01:33;6.05;;;1.95;;
64033;SDS011;50280;49.864;8.638;2022-09-29T14:10:18;5.50;;;2.40;;
64033;SDS011;50280;49.864;8.638;2022-09-29T14:13:02;6.72;;;3.58;;
64033;SDS011;50280;49.864;8.638;2022-09-29T14:15:48;5.05;;;2.88;;
64033;SDS011;50280;49.864;8.638;2022-09-29T14:18:42;7.28;;;3.40;;
64033;SDS011;50280;49.864;8.638;2022-09-29T14:24:44;5.07;;;2.92;;
64033;SDS011;50280;49.864;8.638;2022-09-29T14:27:27;6.32;;;3.20;;
64033;SDS011;50280;49.864;8.638;2022-09-29T14:30:10;6.27;;;2.87;;
64033;SDS011;50280;49.864;8.638;2022-09-29T14:32:50;5.82;;;3.13;;
64033;SDS011;50280;49.864;8.638;2022-09-29T14:35:31;8.90;;;3.53;;
64033;SDS011;50280;49.864;8.638;2022-09-29T14:38:11;8.15;;;3.10;;
64033;SDS011;50280;49.864;8.638;2022-09-29T14:40:54;4.68;;;2.70;;
64033;SDS011;50280;49.864;8.638;2022-09-29T14:43:36;9.65;;;5.18;;
64033;SDS011;50280;49.864;8.638;2022-09-29T14:46:18;13.27;;;7.72;;
64033;SDS011;50280;49.864;8.638;2022-09-29T14:49:33;7.82;;;2.90;;
64033;SDS011;50280;49.864;8.638;2022-09-29T14:52:28;10.50;;;5.90;;
64033;SDS011;50280;49.864;8.638;2022-09-29T14:55:24;4.97;;;2.38;;
64033;SDS011;50280;49.864;8.638;2022-09-29T14:58:20;11.35;;;6.65;;
64033;SDS011;50280;49.864;8.638;2022-09-29T15:01:15;8.45;;;3.90;;
64033;SDS011;50280;49.864;8.638;2022-09-29T15:04:03;8.52;;;4.93;;
64033;SDS011;50280;49.864;8.638;2022-09-29T15:06:45;6.88;;;2.80;;
64033;SDS011;50280;49.864;8.638;2022-09-29T15:09:21;5.68;;;2.72;;
64033;SDS011;50280;49.864;8.638;2022-09-29T15:11:56;9.77;;;5.25;;
64033;SDS011;50280;49.864;8.638;2022-09-29T15:14:30;4.97;;;1.90;;
64033;SDS011;50280;49.864;8.638;2022-09-29T15:17:07;5.03;;;1.92;;
64033;SDS011;50280;49.864;8.638;2022-09-29T15:20:00;6.22;;;2.15;;
64033;SDS011;50280;49.864;8.638;2022-09-29T15:22:52;3.72;;;1.73;;
64033;SDS011;50280;49.864;8.638;2022-09-29T15:25:55;5.15;;;1.60;;
64033;SDS011;50280;49.864;8.638;2022-09-29T15:28:31;3.08;;;1.40;;
64033;SDS011;50280;49.864;8.638;2022-09-29T15:31:08;3.17;;;1.40;;
64033;SDS011;50280;49.864;8.638;2022-09-29T15:33:49;3.78;;;1.48;;
64033;SDS011;50280;49.864;8.638;2022-09-29T15:36:22;4.35;;;1.55;;
64033;SDS011;50280;49.864;8.638;2022-09-29T15:39:00;5.25;;;1.60;;
64033;SDS011;50280;49.864;8.638;2022-09-29T15:41:39;7.47;;;2.00;;
64033;SDS011;50280;49.864;8.638;2022-09-29T15:44:13;4.35;;;1.98;;
64033;SDS011;50280;49.864;8.638;2022-09-29T15:46:49;4.53;;;1.90;;
64033;SDS011;50280;49.864;8.638;2022-09-29T15:49:28;4.63;;;1.70;;
64033;SDS011;50280;49.864;8.638;2022-09-29T15:52:02;5.05;;;1.90;;
64033;SDS011;50280;49.864;8.638;2022-09-29T15:54:41;5.13;;;2.47;;
64033;SDS011;50280;49.864;8.638;2022-09-29T15:57:26;6.20;;;2.20;;
64033;SDS011;50280;49.864;8.638;2022-09-29T16:03:34;5.65;;;2.22;;
64033;SDS011;50280;49.864;8.638;2022-09-29T16:06:17;3.40;;;1.70;;
64033;SDS011;50280;49.864;8.638;2022-09-29T16:09:00;8.55;;;4.85;;
64033;SDS011;50280;49.864;8.638;2022-09-29T16:11:37;7.93;;;3.58;;
64033;SDS011;50280;49.864;8.638;2022-09-29T16:14:12;6.50;;;3.45;;
64033;SDS011;50280;49.864;8.638;2022-09-29T16:16:55;14.57;;;9.10;;
64033;SDS011;50280;49.864;8.638;2022-09-29T16:19:29;6.55;;;2.63;;
64033;SDS011;50280;49.864;8.638;2022-09-29T16:22:04;6.88;;;2.97;;
64033;SDS011;50280;49.864;8.638;2022-09-29T16:24:50;4.35;;;2.88;;
64033;SDS011;50280;49.864;8.638;2022-09-29T16:27:45;12.35;;;6.63;;
64033;SDS011;50280;49.864;8.638;2022-09-29T16:30:27;5.57;;;3.20;;
64033;SDS011;50280;49.864;8.638;2022-09-29T16:33:10;5.28;;;2.60;;
64033;SDS011;50280;49.864;8.638;2022-09-29T16:35:55;7.32;;;3.45;;
64033;SDS011;50280;49.864;8.638;2022-09-29T16:38:38;8.23;;;4.47;;
64033;SDS011;50280;49.864;8.638;2022-09-29T16:41:20;5.53;;;2.45;;
64033;SDS011;50280;49.864;8.638;2022-09-29T16:44:10;5.65;;;1.98;;
64033;SDS011;50280;49.864;8.638;2022-09-29T16:46:48;6.40;;;2.33;;
64033;SDS011;50280;49.864;8.638;2022-09-29T16:49:27;5.78;;;1.85;;
64033;SDS011;50280;49.864;8.638;2022-09-29T16:52:10;5.22;;;1.67;;
64033;SDS011;50280;49.864;8.638;2022-09-29T16:54:48;3.35;;;1.33;;
64033;SDS011;50280;49.864;8.638;2022-09-29T16:57:22;3.95;;;1.60;;
64033;SDS011;50280;49.864;8.638;2022-09-29T16:59:58;4.18;;;1.70;;
64033;SDS011;50280;49.864;8.638;2022-09-29T17:02:42;4.93;;;1.90;;
64033;SDS011;50280;49.864;8.638;2022-09-29T17:05:15;5.82;;;2.08;;
64033;SDS011;50280;49.864;8.638;2022-09-29T17:07:48;4.03;;;1.90;;
64033;SDS011;50280;49.864;8.638;2022-09-29T17:10:30;3.30;;;1.60;;
64033;SDS011;50280;49.864;8.638;2022-09-29T17:13:03;4.40;;;1.70;;
64033;SDS011;50280;49.864;8.638;2022-09-29T17:15:44;3.53;;;1.80;;
64033;SDS011;50280;49.864;8.638;2022-09-29T17:18:21;4.45;;;1.60;;
64033;SDS011;50280;49.864;8.638;2022-09-29T17:20:54;4.22;;;1.60;;
64033;SDS011;50280;49.864;8.638;2022-09-29T17:23:27;5.50;;;1.83;;
64033;SDS011;50280;49.864;8.638;2022-09-29T17:25:59;6.93;;;2.00;;
64033;SDS011;50280;49.864;8.638;2022-09-29T17:28:32;3.58;;;1.70;;
64033;SDS011;50280;49.864;8.638;2022-09-29T17:31:04;5.43;;;1.90;;
64033;SDS011;50280;49.864;8.638;2022-09-29T17:33:40;7.13;;;4.00;;
64033;SDS011;50280;49.864;8.638;2022-09-29T17:36:14;7.05;;;2.50;;
64033;SDS011;50280;49.864;8.638;2022-09-29T17:38:46;6.28;;;2.60;;
64033;SDS011;50280;49.864;8.638;2022-09-29T17:41:19;5.00;;;2.35;;
64033;SDS011;50280;49.864;8.638;2022-09-29T17:43:51;9.98;;;4.45;;
64033;SDS011;50280;49.864;8.638;2022-09-29T17:46:23;9.57;;;3.63;;
64033;SDS011;50280;49.864;8.638;2022-09-29T17:48:56;5.80;;;2.70;;
64033;SDS011;50280;49.864;8.638;2022-09-29T17:51:30;7.68;;;2.90;;
64033;SDS011;50280;49.864;8.638;2022-09-29T17:54:02;5.75;;;2.85;;
64033;SDS011;50280;49.864;8.638;2022-09-29T17:56:36;6.97;;;3.33;;
64033;SDS011;50280;49.864;8.638;2022-09-29T17:59:13;6.20;;;3.30;;
64033;SDS011;50280;49.864;8.638;2022-09-29T18:01:46;5.05;;;3.17;;
64033;SDS011;50280;49.864;8.638;2022-09-29T18:04:18;7.10;;;4.30;;
64033;SDS011;50280;49.864;8.638;2022-09-29T18:06:52;8.55;;;5.38;;
64033;SDS011;50280;49.864;8.638;2022-09-29T18:09:24;8.43;;;5.25;;
64033;SDS011;50280;49.864;8.638;2022-09-29T18:11:56;8.15;;;4.35;;
64033;SDS011;50280;49.864;8.638;2022-09-29T18:14:29;7.20;;;4.20;;
64033;SDS011;50280;49.864;8.638;2022-09-29T18:17:01;6.97;;;3.90;;
64033;SDS011;50280;49.864;8.638;2022-09-29T18:19:35;10.10;;;4.50;;
64033;SDS011;50280;49.864;8.638;2022-09-29T18:22:09;6.72;;;4.07;;
64033;SDS011;50280;49.864;8.638;2022-09-29T18:24:41;8.30;;;4.43;;
64033;SDS011;50280;49.864;8.638;2022-09-29T18:27:13;6.45;;;4.07;;
64033;SDS011;50280;49.864;8.638;2022-09-29T18:29:46;9.43;;;5.10;;
64033;SDS011;50280;49.864;8.638;2022-09-29T18:32:18;10.65;;;5.45;;
64033;SDS011;50280;49.864;8.638;2022-09-29T18:34:51;10.98;;;5.75;;
64033;SDS011;50280;49.864;8.638;2022-09-29T18:37:25;11.35;;;6.20;;
64033;SDS011;50280;49.864;8.638;2022-09-29T18:39:57;9.35;;;6.38;;
64033;SDS011;50280;49.864;8.638;2022-09-29T18:42:30;12.93;;;6.22;;
64033;SDS011;50280;49.864;8.638;2022-09-29T18:45:02;9.60;;;5.70;;
64033;SDS011;50280;49.864;8.638;2022-09-29T18:47:36;10.48;;;6.03;;
64033;SDS011;50280;49.864;8.638;2022-09-29T18:50:12;9.68;;;5.43;;
64033;SDS011;50280;49.864;8.638;2022-09-29T18:52:51;10.55;;;5.40;;
64033;SDS011;50280;49.864;8.638;2022-09-29T18:55:25;9.52;;;5.63;;
64033;SDS011;50280;49.864;8.638;2022-09-29T18:58:01;11.48;;;5.45;;
64033;SDS011;50280;49.864;8.638;2022-09-29T19:00:38;9.02;;;6.05;;
64033;SDS011;50280;49.864;8.638;2022-09-29T19:03:15;10.88;;;6.10;;
64033;SDS011;50280;49.864;8.638;2022-09-29T19:05:48;11.65;;;6.90;;
64033;SDS011;50280;49.864;8.638;2022-09-29T19:08:23;10.25;;;6.60;;
64033;SDS011;50280;49.864;8.638;2022-09-29T19:10:56;10.88;;;6.32;;
64033;SDS011;50280;49.864;8.638;2022-09-29T19:13:28;9.25;;;5.57;;
64033;SDS011;50280;49.864;8.638;2022-09-29T19:16:00;12.48;;;6.78;;
64033;SDS011;50280;49.864;8.638;2022-09-29T19:18:33;13.10;;;7.20;;
64033;SDS011;50280;49.864;8.638;2022-09-29T19:21:07;15.15;;;7.50;;
64033;SDS011;50280;49.864;8.638;2022-09-29T19:23:43;13.02;;;7.07;;
64033;SDS011;50280;49.864;8.638;2022-09-29T19:26:17;10.95;;;6.90;;
64033;SDS011;50280;49.864;8.638;2022-09-29T19:28:51;9.43;;;6.55;;
64033;SDS011;50280;49.864;8.638;2022-09-29T19:31:24;12.88;;;6.80;;
64033;SDS011;50280;49.864;8.638;2022-09-29T19:33:56;11.82;;;6.95;;
64033;SDS011;50280;49.864;8.638;2022-09-29T19:36:28;12.57;;;7.22;;
64033;SDS011;50280;49.864;8.638;2022-09-29T19:39:02;9.63;;;6.40;;
64033;SDS011;50280;49.864;8.638;2022-09-29T19:41:35;10.20;;;6.93;;
64033;SDS011;50280;49.864;8.638;2022-09-29T19:44:08;10.82;;;6.47;;
64033;SDS011;50280;49.864;8.638;2022-09-29T19:46:40;11.73;;;6.85;;
64033;SDS011;50280;49.864;8.638;2022-09-29T19:49:13;9.27;;;6.65;;
64033;SDS011;50280;49.864;8.638;2022-09-29T19:51:46;11.85;;;7.60;;
64033;SDS011;50280;49.864;8.638;2022-09-29T19:54:20;13.65;;;7.55;;
64033;SDS011;50280;49.864;8.638;2022-09-29T19:56:54;11.60;;;7.15;;
64033;SDS011;50280;49.864;8.638;2022-09-29T19:59:30;11.70;;;7.00;;
64033;SDS011;50280;49.864;8.638;2022-09-29T20:02:09;9.68;;;6.32;;
64033;SDS011;50280;49.864;8.638;2022-09-29T20:04:45;10.13;;;6.15;;
64033;SDS011;50280;49.864;8.638;2022-09-29T20:07:17;11.23;;;6.45;;
64033;SDS011;50280;49.864;8.638;2022-09-29T20:09:51;11.07;;;6.45;;
64033;SDS011;50280;49.864;8.638;2022-09-29T20:12:23;9.02;;;5.88;;
64033;SDS011;50280;49.864;8.638;2022-09-29T20:14:56;9.88;;;6.20;;
64033;SDS011;50280;49.864;8.638;2022-09-29T20:17:28;9.60;;;5.70;;
64033;SDS011;50280;49.864;8.638;2022-09-29T20:20:02;10.57;;;6.10;;
64033;SDS011;50280;49.864;8.638;2022-09-29T20:22:36;13.93;;;6.20;;
64033;SDS011;50280;49.864;8.638;2022-09-29T20:25:10;10.30;;;6.53;;
64033;SDS011;50280;49.864;8.638;2022-09-29T20:27:43;11.02;;;6.20;;
64033;SDS011;50280;49.864;8.638;2022-09-29T20:30:15;19.10;;;12.57;;
64033;SDS011;50280;49.864;8.638;2022-09-29T20:32:47;33.33;;;22.00;;
64033;SDS011;50280;49.864;8.638;2022-09-29T20:35:20;18.95;;;11.57;;
64033;SDS011;50280;49.864;8.638;2022-09-29T20:37:52;13.45;;;8.20;;
64033;SDS011;50280;49.864;8.638;2022-09-29T20:40:26;11.20;;;7.20;;
64033;SDS011;50280;49.864;8.638;2022-09-29T20:42:58;12.93;;;7.43;;
64033;SDS011;50280;49.864;8.638;2022-09-29T20:45:31;11.38;;;7.00;;
64033;SDS011;50280;49.864;8.638;2022-09-29T20:48:03;10.45;;;6.55;;
64033;SDS011;50280;49.864;8.638;2022-09-29T20:50:36;10.88;;;6.57;;
64033;SDS011;50280;49.864;8.638;2022-09-29T20:53:08;12.10;;;7.15;;
64033;SDS011;50280;49.864;8.638;2022-09-29T20:55:42;11.52;;;6.60;;
64033;SDS011;50280;49.864;8.638;2022-09-29T20:58:15;11.50;;;6.15;;
64033;SDS011;50280;49.864;8.638;2022-09-29T21:00:47;9.25;;;5.80;;
64033;SDS011;50280;49.864;8.638;2022-09-29T21:03:19;11.70;;;6.10;;
64033;SDS011;50280;49.864;8.638;2022-09-29T21:05:52;8.82;;;5.97;;
64033;SDS011;50280;49.864;8.638;2022-09-29T21:08:25;11.68;;;5.90;;
64033;SDS011;50280;49.864;8.638;2022-09-29T21:11:00;11.68;;;5.72;;
64033;SDS011;50280;49.864;8.638;2022-09-29T21:13:36;7.25;;;5.60;;
64033;SDS011;50280;49.864;8.638;2022-09-29T21:16:08;12.75;;;6.28;;
64033;SDS011;50280;49.864;8.638;2022-09-29T21:18:41;11.07;;;6.82;;
64033;SDS011;50280;49.864;8.638;2022-09-29T21:21:14;13.10;;;7.25;;
64033;SDS011;50280;49.864;8.638;2022-09-29T21:23:46;11.95;;;7.00;;
64033;SDS011;50280;49.864;8.638;2022-09-29T21:26:21;12.48;;;7.53;;
64033;SDS011;50280;49.864;8.638;2022-09-29T21:28:54;14.38;;;8.52;;
64033;SDS011;50280;49.864;8.638;2022-09-29T21:31:30;17.83;;;9.68;;
64033;SDS011;50280;49.864;8.638;2022-09-29T21:34:05;17.77;;;9.15;;
64033;SDS011;50280;49.864;8.638;2022-09-29T21:36:38;12.98;;;8.30;;
64033;SDS011;50280;49.864;8.638;2022-09-29T21:39:11;16.65;;;8.48;;
64033;SDS011;50280;49.864;8.638;2022-09-29T21:41:45;13.85;;;8.43;;
64033;SDS011;50280;49.864;8.638;2022-09-29T21:44:18;14.50;;;8.65;;
64033;SDS011;50280;49.864;8.638;2022-09-29T21:46:53;13.10;;;6.95;;
64033;SDS011;50280;49.864;8.638;2022-09-29T21:49:25;11.90;;;7.03;;
64033;SDS011;50280;49.864;8.638;2022-09-29T21:51:58;13.10;;;6.63;;
64033;SDS011;50280;49.864;8.638;2022-09-29T21:54:30;11.25;;;6.95;;
64033;SDS011;50280;49.864;8.638;2022-09-29T21:57:04;10.65;;;6.38;;
64033;SDS011;50280;49.864;8.638;2022-09-29T21:59:36;10.52;;;6.78;;
64033;SDS011;50280;49.864;8.638;2022-09-29T22:02:08;11.35;;;6.82;;
64033;SDS011;50280;49.864;8.638;2022-09-29T22:04:41;10.75;;;7.00;;
64033;SDS011;50280;49.864;8.638;2022-09-29T22:07:13;11.68;;;7.45;;
64033;SDS011;50280;49.864;8.638;2022-09-29T22:09:46;13.57;;;7.05;;
64033;SDS011;50280;49.864;8.638;2022-09-29T22:12:19;11.98;;;6.68;;
64033;SDS011;50280;49.864;8.638;2022-09-29T22:14:52;15.02;;;6.85;;
64033;SDS011;50280;49.864;8.638;2022-09-29T22:17:24;12.57;;;6.78;;
64033;SDS011;50280;49.864;8.638;2022-09-29T22:19:56;9.98;;;6.15;;
64033;SDS011;50280;49.864;8.638;2022-09-29T22:22:29;11.43;;;6.10;;
64033;SDS011;50280;49.864;8.638;2022-09-29T22:25:01;8.57;;;6.05;;
64033;SDS011;50280;49.864;8.638;2022-09-29T22:27:36;9.70;;;5.85;;
64033;SDS011;50280;49.864;8.638;2022-09-29T22:30:08;9.77;;;5.78;;
64033;SDS011;50280;49.864;8.638;2022-09-29T22:32:42;7.25;;;4.95;;
64033;SDS011;50280;49.864;8.638;2022-09-29T22:35:14;9.10;;;5.55;;
64033;SDS011;50280;49.864;8.638;2022-09-29T22:37:47;12.27;;;5.22;;
64033;SDS011;50280;49.864;8.638;2022-09-29T22:40:20;7.00;;;5.07;;
64033;SDS011;50280;49.864;8.638;2022-09-29T22:42:53;7.53;;;5.03;;
64033;SDS011;50280;49.864;8.638;2022-09-29T22:45:26;9.38;;;5.10;;
64033;SDS011;50280;49.864;8.638;2022-09-29T22:47:59;9.07;;;4.80;;
64033;SDS011;50280;49.864;8.638;2022-09-29T22:50:32;10.30;;;5.30;;
64033;SDS011;50280;49.864;8.638;2022-09-29T22:53:05;12.27;;;4.70;;
64033;SDS011;50280;49.864;8.638;2022-09-29T22:55:37;9.00;;;4.80;;
64033;SDS011;50280;49.864;8.638;2022-09-29T22:58:12;9.65;;;5.10;;
64033;SDS011;50280;49.864;8.638;2022-09-29T23:00:44;8.35;;;5.30;;
64033;SDS011;50280;49.864;8.638;2022-09-29T23:03:16;11.18;;;5.60;;
64033;SDS011;50280;49.864;8.638;2022-09-29T23:05:49;8.85;;;5.07;;
64033;SDS011;50280;49.864;8.638;2022-09-29T23:08:28;7.85;;;4.95;;
64033;SDS011;50280;49.864;8.638;2022-09-29T23:11:01;8.10;;;5.25;;
64033;SDS011;50280;49.864;8.638;2022-09-29T23:13:37;9.05;;;4.90;;
64033;SDS011;50280;49.864;8.638;2022-09-29T23:16:10;7.32;;;4.70;;
64033;SDS011;50280;49.864;8.638;2022-09-29T23:18:45;8.60;;;4.80;;
64033;SDS011;50280;49.864;8.638;2022-09-29T23:21:22;8.60;;;4.70;;
64033;SDS011;50280;49.864;8.638;2022-09-29T23:23:56;9.68;;;4.75;;
64033;SDS011;50280;49.864;8.638;2022-09-29T23:26:31;9.38;;;4.70;;
64033;SDS011;50280;49.864;8.638;2022-09-29T23:29:05;7.65;;;4.78;;
64033;SDS011;50280;49.864;8.638;2022-09-29T23:31:38;7.82;;;4.50;;
64033;SDS011;50280;49.864;8.638;2022-09-29T23:34:11;7.60;;;4.53;;
64033;SDS011;50280;49.864;8.638;2022-09-29T23:36:43;8.77;;;5.00;;
64033;SDS011;50280;49.864;8.638;2022-09-29T23:39:16;6.68;;;4.93;;
64033;SDS011;50280;49.864;8.638;2022-09-29T23:41:50;6.63;;;4.18;;
64033;SDS011;50280;49.864;8.638;2022-09-29T23:44:26;8.85;;;5.60;;
64033;SDS011;50280;49.864;8.638;2022-09-29T23:47:01;7.10;;;4.80;;
64033;SDS011;50280;49.864;8.638;2022-09-29T23:49:34;7.60;;;5.00;;
64033;SDS011;50280;49.864;8.638;2022-09-29T23:52:06;6.38;;;4.85;;
64033;SDS011;50280;49.864;8.638;2022-09-29T23:54:38;7.13;;;4.55;;
64033;SDS011;50280;49.864;8.638;2022-09-29T23:57:11;7.32;;;5.25;;
64033;SDS011;50280;49.864;8.638;2022-09-29T23:59:44;8.05;;;5.03;;
